createdAt,value
2022-11-10T00:02:18.470Z,100393.31
2022-11-10T00:05:05.237Z,100392.20
2022-11-10T00:07:51.337Z,100395.71
2022-11-10T00:10:57.727Z,100401.29
2022-11-10T00:14:02.149Z,100401.81
2022-11-10T00:17:06.627Z,100406.95
2022-11-10T00:19:52.791Z,100409.81
2022-11-10T00:22:40.617Z,100411.63
2022-11-10T00:25:28.142Z,100405.03
2022-11-10T00:28:14.127Z,100402.75
2022-11-10T00:31:05.887Z,100405.09
2022-11-10T00:33:52.429Z,100406.71
2022-11-10T00:36:38.658Z,100405.76
2022-11-10T00:39:25.217Z,100399.13
2022-11-10T00:42:11.468Z,100400.86
2022-11-10T00:44:57.581Z,100406.90
2022-11-10T00:47:46.029Z,100413.16
2022-11-10T00:50:32.392Z,100415.30
2022-11-10T00:53:19.516Z,100424.52
2022-11-10T00:56:06.189Z,100420.95
2022-11-10T00:58:52.425Z,100420.95
2022-11-10T01:01:38.897Z,100421.36
2022-11-10T01:04:25.164Z,100417.14
2022-11-10T01:07:11.593Z,100415.65
2022-11-10T01:09:57.959Z,100410.39
2022-11-10T01:12:44.195Z,100410.51
2022-11-10T01:15:30.904Z,100406.67
2022-11-10T01:18:17.860Z,100405.23
2022-11-10T01:21:05.563Z,100402.59
2022-11-10T01:23:52.048Z,100401.00
2022-11-10T01:26:38.837Z,100407.88
2022-11-10T01:29:25.384Z,100405.23
2022-11-10T01:32:11.683Z,100404.91
2022-11-10T01:34:57.749Z,100410.66
2022-11-10T01:37:45.463Z,100410.67
2022-11-10T01:40:31.889Z,100411.79
2022-11-10T01:43:18.438Z,100408.64
2022-11-10T01:46:06.364Z,100410.47
2022-11-10T01:48:57.325Z,100409.36
2022-11-10T01:51:49.436Z,100415.72
2022-11-10T01:54:39.637Z,100412.69
2022-11-10T01:57:26.517Z,100412.03
2022-11-10T02:00:13.156Z,100416.36
2022-11-10T02:03:24.138Z,100416.99
2022-11-10T02:06:12.062Z,100415.88
2022-11-10T02:09:00.894Z,100419.02
2022-11-10T02:11:47.809Z,100421.41
2022-11-10T02:14:34.334Z,100420.20
2022-11-10T02:17:20.560Z,100420.35
2022-11-10T02:20:10.790Z,100418.88
2022-11-10T02:22:57.028Z,100421.90
2022-11-10T02:25:43.489Z,100419.98
2022-11-10T02:28:33.851Z,100421.48
2022-11-10T02:31:20.139Z,100425.80
2022-11-10T02:34:06.811Z,100430.79
2022-11-10T02:36:52.850Z,100433.66
2022-11-10T02:39:38.986Z,100439.90
2022-11-10T02:42:25.508Z,100449.48
2022-11-10T02:45:11.957Z,100445.42
2022-11-10T02:47:58.562Z,100442.48
2022-11-10T02:50:44.999Z,100444.60
2022-11-10T02:53:31.349Z,100440.11
2022-11-10T02:56:17.942Z,100436.30
2022-11-10T02:59:04.867Z,100434.39
2022-11-10T03:01:50.973Z,100441.23
2022-11-10T03:04:37.513Z,100445.50
2022-11-10T03:07:23.821Z,100449.85
2022-11-10T03:10:10.232Z,100447.93
2022-11-10T03:12:58.459Z,100443.94
2022-11-10T03:15:44.498Z,100442.75
2022-11-10T03:18:30.952Z,100444.00
2022-11-10T03:21:17.199Z,100441.45
2022-11-10T03:24:03.277Z,100446.90
2022-11-10T03:26:49.814Z,100453.98
2022-11-10T03:33:04.077Z,100467.23
2022-11-10T03:35:48.981Z,100470.02
2022-11-10T03:38:33.671Z,100468.34
2022-11-10T03:41:20.465Z,100462.95
2022-11-10T03:44:06.113Z,100464.69
2022-11-10T03:46:51.830Z,100453.59
2022-11-10T03:49:36.761Z,100463.33
2022-11-10T03:52:21.648Z,100470.41
2022-11-10T03:55:06.768Z,100470.89
2022-11-10T03:57:51.819Z,100475.85
2022-11-10T04:00:36.809Z,100481.21
2022-11-10T04:03:22.209Z,100490.27
2022-11-10T04:06:29.528Z,100488.17
2022-11-10T04:09:14.738Z,100490.44
2022-11-10T04:12:23.555Z,100489.51
2022-11-10T04:15:29.815Z,100495.73
2022-11-10T04:18:20.857Z,100503.11
2022-11-10T04:21:05.842Z,100506.56
2022-11-10T04:23:51.016Z,100492.79
2022-11-10T04:26:39.912Z,100474.75
2022-11-10T04:29:24.700Z,100477.70
2022-11-10T04:32:09.315Z,100485.86
2022-11-10T04:34:54.521Z,100498.91
2022-11-10T04:37:39.667Z,100500.43
2022-11-10T04:40:24.785Z,100502.23
2022-11-10T04:43:09.665Z,100504.70
2022-11-10T04:45:54.837Z,100507.78
2022-11-10T04:48:40.011Z,100507.59
2022-11-10T04:51:33.219Z,100514.77
2022-11-10T04:54:18.347Z,100511.30
2022-11-10T04:57:03.212Z,100511.94
2022-11-10T04:59:48.054Z,100511.11
2022-11-10T05:02:38.300Z,100515.09
2022-11-10T05:05:24.710Z,100513.91
2022-11-10T05:08:09.999Z,100515.33
2022-11-10T05:10:54.584Z,100518.30
2022-11-10T05:13:40.561Z,100517.05
2022-11-10T05:16:25.634Z,100523.64
2022-11-10T05:19:10.557Z,100528.96
2022-11-10T05:21:55.764Z,100532.00
2022-11-10T05:24:40.757Z,100539.83
2022-11-10T05:27:25.468Z,100541.77
2022-11-10T05:30:10.584Z,100547.80
2022-11-10T05:32:55.876Z,100550.70
2022-11-10T05:35:40.748Z,100556.83
2022-11-10T05:38:25.898Z,100563.15
2022-11-10T05:41:11.316Z,100564.86
2022-11-10T05:43:56.375Z,100568.80
2022-11-10T05:46:41.950Z,100573.34
2022-11-10T05:49:26.879Z,100578.13
2022-11-10T05:52:11.705Z,100589.08
2022-11-10T05:54:56.859Z,100590.23
2022-11-10T05:57:43.950Z,100595.91
2022-11-10T06:00:31.067Z,100602.45
2022-11-10T06:03:18.610Z,100607.35
2022-11-10T06:06:04.565Z,100606.46
2022-11-10T06:08:49.827Z,100611.04
2022-11-10T06:11:34.563Z,100614.72
2022-11-10T06:14:19.491Z,100619.79
2022-11-10T06:17:04.430Z,100625.77
2022-11-10T06:19:49.692Z,100627.84
2022-11-10T06:22:34.722Z,100630.44
2022-11-10T06:25:19.962Z,100633.86
2022-11-10T06:28:06.043Z,100640.63
2022-11-10T06:30:50.955Z,100644.67
2022-11-10T06:33:36.048Z,100652.67
2022-11-10T06:36:21.560Z,100656.23
2022-11-10T06:39:06.773Z,100654.61
2022-11-10T06:41:51.584Z,100653.36
2022-11-10T06:44:36.466Z,100654.23
2022-11-10T06:47:21.419Z,100654.30
2022-11-10T06:50:07.059Z,100668.54
2022-11-10T06:52:57.854Z,100672.06
2022-11-10T06:55:42.646Z,100681.40
2022-11-10T06:58:27.303Z,100687.33
2022-11-10T07:01:12.456Z,100693.15
2022-11-10T07:04:18.764Z,100698.35
2022-11-10T07:07:02.305Z,100700.75
2022-11-10T07:09:47.515Z,100698.15
2022-11-10T07:12:32.506Z,100702.09
2022-11-10T07:15:17.442Z,100703.67
2022-11-10T07:18:03.580Z,100703.58
2022-11-10T07:20:48.603Z,100698.36
2022-11-10T07:23:34.319Z,100696.05
2022-11-10T07:26:19.523Z,100692.14
2022-11-10T07:29:04.360Z,100687.55
2022-11-10T07:31:49.350Z,100705.90
2022-11-10T07:34:34.190Z,100713.14
2022-11-10T07:37:19.190Z,100714.41
2022-11-10T07:40:04.381Z,100720.83
2022-11-10T07:42:49.693Z,100723.93
2022-11-10T07:45:34.610Z,100727.42
2022-11-10T07:48:20.411Z,100727.02
2022-11-10T07:51:05.597Z,100733.80
2022-11-10T07:53:50.484Z,100741.77
2022-11-10T07:56:35.287Z,100744.07
2022-11-10T07:59:20.175Z,100751.02
2022-11-10T08:02:05.290Z,100750.59
2022-11-10T08:04:50.497Z,100751.39
2022-11-10T08:07:35.566Z,100753.42
2022-11-10T08:10:20.717Z,100755.36
2022-11-10T08:13:08.552Z,100761.82
2022-11-10T08:15:53.345Z,100765.09
2022-11-10T08:18:38.375Z,100769.20
2022-11-10T08:21:23.168Z,100774.52
2022-11-10T08:24:08.662Z,100773.66
2022-11-10T08:26:53.852Z,100777.69
2022-11-10T08:29:38.883Z,100783.47
2022-11-10T08:32:23.990Z,100780.15
2022-11-10T08:35:08.951Z,100780.27
2022-11-10T08:37:54.048Z,100785.20
2022-11-10T08:40:39.675Z,100794.39
2022-11-10T08:43:25.328Z,100801.21
2022-11-10T08:46:10.549Z,100804.92
2022-11-10T08:48:55.539Z,100808.28
2022-11-10T08:51:40.283Z,100813.13
2022-11-10T08:54:25.111Z,100809.93
2022-11-10T08:57:10.020Z,100816.94
2022-11-10T08:59:55.129Z,100820.70
2022-11-10T09:02:40.243Z,100823.16
2022-11-10T09:05:25.350Z,100827.45
2022-11-10T09:08:11.279Z,100830.13
2022-11-10T09:10:56.372Z,100833.92
2022-11-10T09:13:41.325Z,100841.13
2022-11-10T09:16:26.031Z,100842.36
2022-11-10T09:19:15.465Z,100853.42
2022-11-10T09:22:04.193Z,100856.05
2022-11-10T09:24:49.355Z,100855.70
2022-11-10T09:27:37.846Z,100860.46
2022-11-10T09:30:22.789Z,100858.86
2022-11-10T09:33:08.345Z,100861.45
2022-11-10T09:35:58.367Z,100865.20
2022-11-10T09:38:43.631Z,100872.37
2022-11-10T09:41:29.236Z,100872.54
2022-11-10T09:44:21.479Z,100870.38
2022-11-10T09:47:19.043Z,100863.86
2022-11-10T09:50:17.732Z,100866.96
2022-11-10T09:53:05.331Z,100871.91
2022-11-10T09:55:55.112Z,100874.27
2022-11-10T09:58:45.209Z,100876.80
2022-11-10T10:01:49.264Z,100882.71
2022-11-10T10:05:06.367Z,100890.89
2022-11-10T10:08:10.235Z,100889.19
2022-11-10T10:11:12.994Z,100885.70
2022-11-10T10:14:12.970Z,100890.17
2022-11-10T10:17:04.557Z,100893.23
2022-11-10T10:20:21.723Z,100901.66
2022-11-10T10:23:54.345Z,100899.98
2022-11-10T10:26:50.653Z,100900.33
2022-11-10T10:29:41.899Z,100898.09
2022-11-10T10:32:27.981Z,100902.76
2022-11-10T10:35:18.100Z,100901.25
2022-11-10T10:38:05.554Z,100903.86
2022-11-10T10:40:52.411Z,100902.39
2022-11-10T10:43:41.218Z,100901.69
2022-11-10T10:46:32.907Z,100903.53
2022-11-10T10:49:31.142Z,100907.21
2022-11-10T10:52:24.008Z,100905.34
2022-11-10T10:55:12.571Z,100904.56
2022-11-10T10:58:00.802Z,100905.83
2022-11-10T11:00:49.226Z,100904.33
2022-11-10T11:03:52.543Z,100907.83
2022-11-10T11:06:37.866Z,100903.58
2022-11-10T11:09:43.905Z,100909.90
2022-11-10T11:12:30.910Z,100913.60
2022-11-10T11:15:28.756Z,100914.31
2022-11-10T11:18:17.057Z,100913.11
2022-11-10T11:21:14.372Z,100914.34
2022-11-10T11:24:22.351Z,100917.13
2022-11-10T11:27:22.575Z,100919.13
2022-11-10T11:30:15.034Z,100923.09
2022-11-10T11:33:16.347Z,100922.05
2022-11-10T11:36:26.256Z,100925.44
2022-11-10T11:39:42.404Z,100929.55
2022-11-10T11:42:35.033Z,100932.48
2022-11-10T11:45:37.529Z,100933.59
2022-11-10T11:48:34.230Z,100930.36
2022-11-10T11:51:26.652Z,100937.84
2022-11-10T11:54:30.592Z,100941.49
2022-11-10T11:57:22.138Z,100942.69
2022-11-10T12:00:12.292Z,100938.35
2022-11-10T12:03:16.098Z,100943.40
2022-11-10T12:06:16.155Z,100948.39
2022-11-10T12:09:08.695Z,100949.16
2022-11-10T12:12:11.694Z,100952.11
2022-11-10T12:15:18.365Z,100955.95
2022-11-10T12:18:09.904Z,100958.98
2022-11-10T12:21:02.975Z,100959.24
2022-11-10T12:24:40.201Z,100957.77
2022-11-10T12:27:31.558Z,100965.11
2022-11-10T12:30:17.480Z,100964.06
2022-11-10T12:33:14.726Z,100975.25
2022-11-10T12:36:05.334Z,100975.84
2022-11-10T12:39:13.226Z,100981.58
2022-11-10T12:41:59.641Z,100984.67
2022-11-10T12:45:04.032Z,100989.63
2022-11-10T12:47:49.428Z,100995.91
2022-11-10T12:50:55.813Z,100996.35
2022-11-10T12:53:42.231Z,100998.68
2022-11-10T12:56:45.638Z,101002.73
2022-11-10T12:59:34.069Z,101001.92
2022-11-10T13:02:26.705Z,101004.46
2022-11-10T13:05:14.492Z,101011.48
2022-11-10T13:08:32.282Z,101018.10
2022-11-10T13:11:17.201Z,101017.67
2022-11-10T13:14:04.572Z,101019.66
2022-11-10T13:16:53.882Z,101024.09
2022-11-10T13:19:38.687Z,101026.35
2022-11-10T13:22:30.955Z,101024.51
2022-11-10T13:25:35.257Z,101027.71
2022-11-10T13:28:48.697Z,101029.33
2022-11-10T13:31:39.357Z,101035.27
2022-11-10T13:34:35.781Z,101043.37
2022-11-10T13:37:32.967Z,101046.27
2022-11-10T13:40:18.070Z,101051.73
2022-11-10T13:43:03.086Z,101050.83
2022-11-10T13:45:48.137Z,101053.36
2022-11-10T13:48:38.894Z,101058.27
2022-11-10T13:51:37.858Z,101062.16
2022-11-10T13:54:55.220Z,101071.64
2022-11-10T13:58:19.116Z,101077.34
2022-11-10T14:01:16.289Z,101085.58
2022-11-10T14:04:02.445Z,101096.02
2022-11-10T14:06:51.126Z,101100.89
2022-11-10T14:09:39.340Z,101105.30
2022-11-10T14:12:27.191Z,101109.12
2022-11-10T14:15:16.992Z,101120.20
2022-11-10T14:18:02.749Z,101114.97
2022-11-10T14:20:55.973Z,101117.30
2022-11-10T14:23:43.912Z,101121.40
2022-11-10T14:26:35.896Z,101123.24
2022-11-10T14:29:39.598Z,101128.58
2022-11-10T14:32:25.427Z,101129.04
2022-11-10T14:35:26.760Z,101130.91
2022-11-10T14:38:33.255Z,101138.40
2022-11-10T14:41:20.259Z,101142.98
2022-11-10T14:44:07.099Z,101144.08
2022-11-10T14:46:53.804Z,101150.40
2022-11-10T14:49:38.779Z,101159.39
2022-11-10T14:52:23.554Z,101160.44
2022-11-10T14:55:19.711Z,101168.24
2022-11-10T14:58:11.821Z,101175.23
2022-11-10T15:00:57.524Z,101175.52
2022-11-10T15:03:42.807Z,101180.00
2022-11-10T15:06:29.514Z,101177.94
2022-11-10T15:09:26.194Z,101183.70
2022-11-10T15:12:27.152Z,101183.20
2022-11-10T15:15:21.594Z,101189.95
2022-11-10T15:18:24.205Z,101195.14
2022-11-10T15:21:12.077Z,101195.43
2022-11-10T15:24:00.355Z,101199.61
2022-11-10T15:26:45.589Z,101202.98
2022-11-10T15:29:30.853Z,101210.11
2022-11-10T15:32:20.406Z,101214.46
2022-11-10T15:35:24.511Z,101221.36
2022-11-10T15:38:14.529Z,101228.62
2022-11-10T15:41:15.412Z,101230.46
2022-11-10T15:44:23.530Z,101231.64
2022-11-10T15:47:13.316Z,101236.42
2022-11-10T15:49:59.844Z,101233.76
2022-11-10T15:52:44.532Z,101234.41
2022-11-10T15:55:33.644Z,101239.59
2022-11-10T15:58:21.243Z,101241.27
2022-11-10T16:01:10.512Z,101249.93
2022-11-10T16:03:55.672Z,101256.29
2022-11-10T16:06:40.780Z,101258.43
2022-11-10T16:09:25.795Z,101264.24
2022-11-10T16:12:19.879Z,101269.02
2022-11-10T16:15:05.991Z,101277.37
2022-11-10T16:17:50.942Z,101281.54
2022-11-10T16:20:35.990Z,101286.40
2022-11-10T16:23:20.839Z,101289.72
2022-11-10T16:26:07.052Z,101295.30
2022-11-10T16:28:52.012Z,101305.73
2022-11-10T16:31:37.590Z,101310.32
2022-11-10T16:34:22.568Z,101317.64
2022-11-10T16:37:11.532Z,101326.22
2022-11-10T16:39:56.508Z,101327.02
2022-11-10T16:42:42.287Z,101331.36
2022-11-10T16:45:29.445Z,101331.91
2022-11-10T16:48:17.588Z,101335.91
2022-11-10T16:51:02.776Z,101336.01
2022-11-10T16:53:48.626Z,101345.23
2022-11-10T16:56:33.673Z,101353.16
2022-11-10T16:59:18.611Z,101352.92
2022-11-10T17:02:03.571Z,101352.26
2022-11-10T17:04:48.668Z,101352.75
2022-11-10T17:07:33.599Z,101360.27
2022-11-10T17:10:20.340Z,101358.49
2022-11-10T17:13:05.132Z,101361.88
2022-11-10T17:15:53.284Z,101364.76
2022-11-10T17:18:38.612Z,101361.77
2022-11-10T17:21:27.368Z,101365.98
2022-11-10T17:24:16.848Z,101368.89
2022-11-10T17:27:01.830Z,101369.27
2022-11-10T17:29:46.793Z,101374.66
2022-11-10T17:32:57.947Z,101372.20
2022-11-10T17:35:44.026Z,101371.95
2022-11-10T17:38:31.090Z,101374.95
2022-11-10T17:41:18.110Z,101380.58
2022-11-10T17:44:03.152Z,101383.57
2022-11-10T17:46:48.195Z,101380.20
2022-11-10T17:49:33.060Z,101385.67
2022-11-10T17:52:18.163Z,101389.09
2022-11-10T17:55:02.893Z,101396.39
2022-11-10T17:57:48.511Z,101401.23
2022-11-10T18:00:33.549Z,101408.00
2022-11-10T18:03:21.081Z,101408.70
2022-11-10T18:06:06.472Z,101411.48
2022-11-10T18:08:51.231Z,101414.23
2022-11-10T18:11:36.144Z,101411.26
2022-11-10T18:14:21.297Z,101410.62
2022-11-10T18:17:06.276Z,101415.04
2022-11-10T18:19:51.408Z,101416.84
2022-11-10T18:22:36.263Z,101414.30
2022-11-10T18:25:21.399Z,101412.92
2022-11-10T18:28:06.867Z,101422.69
2022-11-10T18:30:51.516Z,101425.20
2022-11-10T18:33:36.955Z,101424.86
2022-11-10T18:36:22.219Z,101426.38
2022-11-10T18:39:07.299Z,101429.89
2022-11-10T18:41:51.999Z,101435.84
2022-11-10T18:44:38.008Z,101432.63
2022-11-10T18:47:22.754Z,101434.50
2022-11-10T18:50:08.431Z,101434.73
2022-11-10T18:52:53.745Z,101434.92
2022-11-10T18:55:41.801Z,101444.30
2022-11-10T18:58:30.418Z,101446.60
2022-11-10T19:01:16.286Z,101452.48
2022-11-10T19:04:01.142Z,101452.95
2022-11-10T19:06:46.215Z,101453.92
2022-11-10T19:09:32.713Z,101453.36
2022-11-10T19:12:17.315Z,101451.44
2022-11-10T19:15:02.478Z,101452.13
2022-11-10T19:17:47.476Z,101454.45
2022-11-10T19:20:35.624Z,101458.51
2022-11-10T19:23:21.036Z,101466.06
2022-11-10T19:26:09.670Z,101471.57
2022-11-10T19:28:55.663Z,101476.55
2022-11-10T19:31:41.666Z,101485.11
2022-11-10T19:34:26.788Z,101492.11
2022-11-10T19:37:11.786Z,101493.29
2022-11-10T19:39:56.626Z,101500.59
2022-11-10T19:42:41.680Z,101505.45
2022-11-10T19:45:26.547Z,101518.02
2022-11-10T19:48:11.592Z,101516.29
2022-11-10T19:50:58.537Z,101521.75
2022-11-10T19:53:45.997Z,101530.25
2022-11-10T19:56:36.053Z,101532.83
2022-11-10T19:59:22.409Z,101537.36
2022-11-10T20:02:12.257Z,101536.50
2022-11-10T20:05:15.319Z,101535.65
2022-11-10T20:08:12.326Z,101533.64
2022-11-10T20:11:03.441Z,101536.33
2022-11-10T20:13:54.394Z,101529.37
2022-11-10T20:16:39.867Z,101530.64
2022-11-10T20:19:24.907Z,101525.81
2022-11-10T20:22:11.919Z,101531.37
2022-11-10T20:24:56.797Z,101531.54
2022-11-10T20:27:41.582Z,101530.07
2022-11-10T20:30:26.887Z,101538.88
2022-11-10T20:33:12.154Z,101538.33
2022-11-10T20:36:06.564Z,101537.69
2022-11-10T20:38:53.205Z,101538.74
2022-11-10T20:41:38.186Z,101537.75
2022-11-10T20:44:23.057Z,101535.02
2022-11-10T20:47:07.721Z,101541.98
2022-11-10T20:49:52.953Z,101533.78
2022-11-10T20:52:37.990Z,101537.58
2022-11-10T20:55:51.583Z,101538.36
2022-11-10T20:58:28.663Z,101538.15
2022-11-10T21:01:15.062Z,101535.30
2022-11-10T21:04:01.695Z,101536.56
2022-11-10T21:06:46.781Z,101536.55
2022-11-10T21:09:31.695Z,101535.53
2022-11-10T21:12:35.146Z,101539.13
2022-11-10T21:15:20.903Z,101547.67
2022-11-10T21:18:05.732Z,101550.35
2022-11-10T21:20:53.682Z,101551.67
2022-11-10T21:23:38.870Z,101551.56
2022-11-10T21:26:23.936Z,101554.45
2022-11-10T21:29:09.536Z,101554.48
2022-11-10T21:31:54.379Z,101564.06
2022-11-10T21:34:39.198Z,101566.55
2022-11-10T21:37:25.073Z,101566.24
2022-11-10T21:40:11.496Z,101565.90
2022-11-10T21:42:57.406Z,101568.98
2022-11-10T21:45:42.077Z,101569.13
2022-11-10T21:48:27.179Z,101572.61
2022-11-10T21:51:13.619Z,101569.25
2022-11-10T21:53:58.361Z,101570.06
2022-11-10T21:56:43.583Z,101569.50
2022-11-10T21:59:28.792Z,101570.56
2022-11-10T22:02:14.355Z,101574.35
2022-11-10T22:04:59.277Z,101576.82
2022-11-10T22:07:44.424Z,101579.94
2022-11-10T22:10:47.797Z,101577.77
2022-11-10T22:13:51.149Z,101581.38
2022-11-10T22:17:05.759Z,101582.73
2022-11-10T22:19:50.417Z,101582.82
2022-11-10T22:22:35.182Z,101578.95
2022-11-10T22:25:20.053Z,101577.67
2022-11-10T22:28:05.288Z,101579.23
2022-11-10T22:30:50.289Z,101576.68
2022-11-10T22:33:37.719Z,101580.34
2022-11-10T22:36:22.559Z,101583.20
2022-11-10T22:39:08.218Z,101584.96
2022-11-10T22:42:11.963Z,101592.73
2022-11-10T22:44:57.717Z,101595.14
2022-11-10T22:48:01.191Z,101597.11
2022-11-10T22:50:54.114Z,101600.36
2022-11-10T22:53:38.839Z,101600.95
2022-11-10T22:56:24.335Z,101605.05
2022-11-10T22:59:10.272Z,101606.42
2022-11-10T23:01:55.452Z,101611.39
2022-11-10T23:04:40.397Z,101617.62
2022-11-10T23:07:25.282Z,101625.20
2022-11-10T23:10:10.160Z,101631.90
2022-11-10T23:12:55.436Z,101637.17
2022-11-10T23:15:44.616Z,101638.05
2022-11-10T23:18:29.702Z,101637.53
2022-11-10T23:21:17.090Z,101634.48
2022-11-10T23:24:02.120Z,101631.18
2022-11-10T23:26:46.912Z,101635.34
2022-11-10T23:29:31.697Z,101636.62
2022-11-10T23:32:16.543Z,101640.67
2022-11-10T23:35:01.049Z,101639.61
2022-11-10T23:37:46.039Z,101639.55
2022-11-10T23:40:30.897Z,101638.45
2022-11-10T23:43:16.143Z,101635.70
2022-11-10T23:46:06.905Z,101639.49
2022-11-10T23:48:52.207Z,101639.97
2022-11-10T23:51:37.146Z,101634.42
2022-11-10T23:54:22.065Z,101643.30
2022-11-10T23:57:07.198Z,101647.54
2022-11-10T23:59:51.872Z,101642.63
